Time;durP1;ratioP1;P1;durP2;ratioP2;P2;SDS_P1;SDS_P2;PMS_P1;PMS_P2;Temp;Humidity;BMP_temperature;BMP_pressure;BME280_temperature;BME280_humidity;BME280_pressure;Samples;Min_cycle;Max_cycle;Signal;HPM_P1;HPM_P2
2021/04/14 00:01:56;;;;;;;15.23;11.20;;;;;2.50;102595.00;;;;9896545;29;20357;-78
2021/04/14 00:06:59;;;;;;;20.47;13.47;;;;;2.50;102595.00;;;;9940975;29;20239;-78
2021/04/14 00:12:02;;;;;;;17.10;12.53;;;;;2.40;102609.00;;;;9917286;29;20569;-76
2021/04/14 00:17:04;;;;;;;16.47;12.37;;;;;2.40;102590.00;;;;9932188;29;20227;-79
2021/04/14 00:22:05;;;;;;;17.23;12.43;;;;;2.40;102597.00;;;;9933921;29;20210;-76
2021/04/14 00:27:07;;;;;;;15.13;11.30;;;;;2.40;102594.00;;;;9912801;29;20244;-78
2021/04/14 00:32:09;;;;;;;17.30;11.67;;;;;2.40;102597.00;;;;9946682;29;20230;-78
2021/04/14 00:37:10;;;;;;;18.03;13.30;;;;;2.40;102597.00;;;;9912025;29;20313;-76
2021/04/14 00:42:11;;;;;;;15.17;12.40;;;;;2.30;102600.00;;;;9901079;29;20234;-76
2021/04/14 00:47:13;;;;;;;19.70;13.43;;;;;2.20;102592.00;;;;9897887;29;20214;-76
2021/04/14 00:52:16;;;;;;;18.50;13.53;;;;;2.10;102583.00;;;;9899428;29;20353;-76
2021/04/14 00:57:18;;;;;;;19.20;13.43;;;;;1.90;102579.00;;;;9947674;29;20293;-79
2021/04/14 01:02:20;;;;;;;21.00;12.77;;;;;1.80;102578.00;;;;9916451;29;20244;-74
2021/04/14 01:07:21;;;;;;;20.47;12.83;;;;;1.80;102581.00;;;;9895658;29;20227;-75
2021/04/14 01:12:22;;;;;;;20.43;13.63;;;;;1.80;102579.00;;;;9890160;29;20264;-75
2021/04/14 01:17:24;;;;;;;17.47;12.20;;;;;1.80;102576.00;;;;9920061;29;20313;-76
2021/04/14 01:22:25;;;;;;;17.23;12.03;;;;;1.80;102570.00;;;;9927203;29;20210;-73
2021/04/14 01:27:27;;;;;;;16.43;11.53;;;;;1.70;102581.00;;;;9926114;29;20969;-74
2021/04/14 01:32:29;;;;;;;14.50;11.90;;;;;1.60;102580.00;;;;9911931;29;20571;-74
2021/04/14 01:37:30;;;;;;;15.93;11.80;;;;;1.50;102576.00;;;;9941228;29;20214;-76
2021/04/14 01:42:32;;;;;;;15.63;12.90;;;;;1.30;102582.00;;;;9911449;29;20584;-76
2021/04/14 01:47:33;;;;;;;18.53;13.70;;;;;1.30;102582.00;;;;9887185;29;20302;-76
2021/04/14 01:52:35;;;;;;;15.57;12.33;;;;;1.20;102585.00;;;;9925834;29;20214;-74
2021/04/14 01:57:37;;;;;;;16.93;13.40;;;;;1.20;102577.00;;;;9940366;29;20234;-74
2021/04/14 02:02:38;;;;;;;18.47;12.60;;;;;1.10;102581.00;;;;9924805;29;20210;-74
2021/04/14 02:07:40;;;;;;;20.90;14.73;;;;;1.00;102570.00;;;;9910938;29;20243;-74
2021/04/14 02:12:42;;;;;;;19.63;13.57;;;;;0.90;102566.00;;;;9925085;29;20269;-73
2021/04/14 02:17:44;;;;;;;15.97;13.67;;;;;0.90;102572.00;;;;9922403;29;20227;-73
2021/04/14 02:22:45;;;;;;;16.40;13.70;;;;;1.00;102565.00;;;;9925423;29;20609;-74
2021/04/14 02:27:49;;;;;;;16.97;13.77;;;;;0.90;102563.00;;;;9922811;29;20211;-74
2021/04/14 02:32:52;;;;;;;18.00;13.37;;;;;0.80;102562.00;;;;9896141;29;20686;-74
2021/04/14 02:37:54;;;;;;;19.50;13.77;;;;;0.80;102559.00;;;;9862101;29;20223;-75
2021/04/14 02:42:55;;;;;;;19.77;13.80;;;;;0.90;102557.00;;;;9858117;29;20216;-74
2021/04/14 02:47:57;;;;;;;19.93;15.30;;;;;1.10;102551.00;;;;9871875;29;20207;-74
2021/04/14 02:53:04;;;;;;;17.87;14.27;;;;;1.20;102557.00;;;;9902597;29;20204;-74
2021/04/14 02:58:06;;;;;;;18.37;13.13;;;;;1.20;102554.00;;;;9923025;29;20313;-74
2021/04/14 03:03:07;;;;;;;13.47;11.60;;;;;1.20;102554.00;;;;9900935;29;20207;-74
2021/04/14 03:08:09;;;;;;;14.53;11.83;;;;;1.00;102549.00;;;;9888328;29;20837;-74
2021/04/14 03:13:11;;;;;;;14.57;12.63;;;;;0.90;102556.00;;;;9907662;29;20669;-74
2021/04/14 03:18:15;;;;;;;15.63;12.07;;;;;0.90;102551.00;;;;9888704;29;20226;-74
2021/04/14 03:23:17;;;;;;;17.90;12.57;;;;;0.90;102553.00;;;;9923510;29;20254;-74
2021/04/14 03:28:19;;;;;;;17.03;13.23;;;;;0.90;102544.00;;;;9927799;29;20256;-74
2021/04/14 03:33:20;;;;;;;17.43;14.00;;;;;1.00;102552.00;;;;9880384;29;20246;-74
2021/04/14 03:38:21;;;;;;;19.27;14.10;;;;;1.00;102544.00;;;;9930403;29;20226;-74
2021/04/14 03:43:23;;;;;;;19.07;14.87;;;;;1.10;102536.00;;;;9947047;29;20674;-74
2021/04/14 03:48:25;;;;;;;22.67;14.23;;;;;1.10;102549.00;;;;9879668;29;20212;-74
2021/04/14 03:53:31;;;;;;;14.07;11.73;;;;;1.10;102537.00;;;;9930951;29;20790;-74
2021/04/14 03:58:34;;;;;;;16.47;13.53;;;;;1.10;102528.00;;;;9944580;29;20222;-74
2021/04/14 04:03:36;;;;;;;17.47;11.87;;;;;1.20;102526.00;;;;9892983;29;20210;-74
2021/04/14 04:08:37;;;;;;;15.60;12.47;;;;;1.30;102532.00;;;;9914800;29;20238;-74
2021/04/14 04:13:39;;;;;;;13.67;11.17;;;;;1.40;102533.00;;;;9888230;29;20288;-74
2021/04/14 04:18:40;;;;;;;15.47;10.63;;;;;1.40;102540.00;;;;9895058;29;20230;-74
2021/04/14 04:23:42;;;;;;;15.83;10.37;;;;;1.40;102539.00;;;;9895850;29;20668;-74
2021/04/14 04:28:43;;;;;;;12.83;10.47;;;;;1.30;102526.00;;;;9897220;29;20199;-74
2021/04/14 04:33:45;;;;;;;13.00;10.33;;;;;1.30;102528.00;;;;9914278;29;20255;-74
2021/04/14 04:38:47;;;;;;;15.37;11.27;;;;;1.20;102526.00;;;;9928264;29;20235;-74
2021/04/14 04:43:48;;;;;;;15.23;12.13;;;;;1.10;102528.00;;;;9913518;29;20211;-74
2021/04/14 04:48:49;;;;;;;15.53;12.10;;;;;1.10;102534.00;;;;9913010;29;20226;-74
2021/04/14 04:53:51;;;;;;;15.57;12.63;;;;;1.20;102536.00;;;;9912956;29;20218;-74
2021/04/14 04:58:52;;;;;;;15.43;11.60;;;;;1.10;102538.00;;;;9907895;29;20251;-74
2021/04/14 05:03:54;;;;;;;13.50;11.10;;;;;1.10;102548.00;;;;9912336;29;20655;-74
2021/04/14 05:08:55;;;;;;;17.20;13.17;;;;;1.10;102565.00;;;;9928055;29;20238;-74
2021/04/14 05:13:59;;;;;;;15.67;11.83;;;;;1.10;102567.00;;;;9927488;29;20215;-74
2021/04/14 05:19:01;;;;;;;16.60;12.17;;;;;1.20;102570.00;;;;9926579;29;20314;-74
2021/04/14 05:24:03;;;;;;;16.63;12.30;;;;;1.50;102562.00;;;;9878341;29;20719;-74
2021/04/14 05:29:04;;;;;;;16.80;13.77;;;;;1.70;102583.00;;;;9892885;29;20215;-74
2021/04/14 05:34:07;;;;;;;14.93;13.33;;;;;1.90;102575.00;;;;9903400;29;20208;-74
2021/04/14 05:39:08;;;;;;;15.37;12.27;;;;;2.20;102582.00;;;;9898751;29;20218;-74
2021/04/14 05:44:10;;;;;;;17.23;13.07;;;;;2.40;102580.00;;;;9941831;29;20241;-74
2021/04/14 05:49:11;;;;;;;19.30;13.00;;;;;2.60;102595.00;;;;9895932;29;20206;-74
2021/04/14 05:54:13;;;;;;;17.53;12.67;;;;;2.80;102587.00;;;;9926397;29;20342;-74
2021/04/14 05:59:20;;;;;;;17.00;11.67;;;;;2.90;102591.00;;;;9923298;29;20238;-74
2021/04/14 06:04:25;;;;;;;14.70;11.63;;;;;3.00;102585.00;;;;9901751;29;20568;-74
2021/04/14 06:09:26;;;;;;;17.00;11.90;;;;;3.20;102597.00;;;;9911033;29;20211;-74
2021/04/14 06:14:28;;;;;;;14.83;11.80;;;;;3.40;102605.00;;;;9903402;29;20211;-74
2021/04/14 06:19:29;;;;;;;14.27;10.73;;;;;3.60;102608.00;;;;9913547;29;20638;-74
2021/04/14 06:24:32;;;;;;;14.10;10.73;;;;;3.90;102604.00;;;;9940727;29;20214;-74
2021/04/14 06:29:33;;;;;;;14.93;10.43;;;;;4.30;102618.00;;;;9921410;29;20214;-74
2021/04/14 06:34:35;;;;;;;14.17;10.23;;;;;4.70;102608.00;;;;9927109;29;20276;-74
2021/04/14 06:39:38;;;;;;;12.23;10.37;;;;;5.10;102601.00;;;;9904380;29;20230;-74
2021/04/14 06:44:57;;;;;;;12.73;10.87;;;;;5.50;102610.00;;;;9919023;29;20203;-74
2021/04/14 06:50:13;;;;;;;14.30;10.87;;;;;5.90;102611.00;;;;9892402;29;20612;-74
2021/04/14 06:55:27;;;;;;;15.10;10.53;;;;;5.90;102610.00;;;;9900931;29;20215;-74
2021/04/14 07:00:35;;;;;;;11.87;9.70;;;;;6.00;102614.00;;;;9892557;29;20548;-74
2021/04/14 07:05:40;;;;;;;11.53;9.20;;;;;5.90;102608.00;;;;9894649;29;20234;-74
2021/04/14 07:10:43;;;;;;;12.23;9.60;;;;;5.90;102601.00;;;;9922215;29;20264;-74
2021/04/14 07:15:45;;;;;;;15.97;9.70;;;;;6.40;102611.00;;;;9935108;29;20210;-74
2021/04/14 07:20:59;;;;;;;11.80;10.30;;;;;7.30;102607.00;;;;9895552;29;20220;-74
2021/04/14 07:26:08;;;;;;;16.37;10.17;;;;;7.90;102599.00;;;;9905162;29;20207;-74
2021/04/14 07:31:10;;;;;;;15.63;9.17;;;;;8.70;102598.00;;;;9849261;29;20222;-74
2021/04/14 07:36:15;;;;;;;12.83;7.23;;;;;9.50;102600.00;;;;9913867;29;20300;-74
2021/04/14 07:41:40;;;;;;;10.83;6.57;;;;;10.70;102593.00;;;;9921975;29;20293;-75
2021/04/14 07:46:46;;;;;;;6.77;4.50;;;;;10.80;102600.00;;;;9928342;29;20626;-74
2021/04/14 07:51:49;;;;;;;7.07;4.37;;;;;10.50;102597.00;;;;9915237;29;20214;-76
2021/04/14 07:56:55;;;;;;;7.43;4.10;;;;;10.40;102599.00;;;;9915232;29;20276;-75
2021/04/14 08:02:08;;;;;;;9.57;4.20;;;;;10.50;102601.00;;;;9892560;29;20252;-74
2021/04/14 08:07:21;;;;;;;6.60;4.40;;;;;10.70;102592.00;;;;9910205;29;20258;-75
2021/04/14 08:12:58;;;;;;;5.27;4.07;;;;;10.60;102577.00;;;;9887442;29;20883;-75
2021/04/14 08:18:31;;;;;;;6.77;4.23;;;;;11.40;102582.00;;;;9910356;29;20230;-74
2021/04/14 08:23:34;;;;;;;5.53;3.87;;;;;12.30;102577.00;;;;9903200;29;20306;-75
2021/04/14 08:28:43;;;;;;;6.13;4.07;;;;;12.50;102587.00;;;;9882426;29;20237;-75
2021/04/14 08:33:44;;;;;;;11.60;4.70;;;;;12.00;102583.00;;;;9909893;29;20207;-75
2021/04/14 08:38:46;;;;;;;5.63;4.07;;;;;11.70;102591.00;;;;9910123;29;20276;-75
2021/04/14 08:43:52;;;;;;;6.07;3.90;;;;;11.40;102585.00;;;;9923621;29;20579;-75
2021/04/14 08:49:00;;;;;;;8.77;4.43;;;;;11.20;102580.00;;;;9864222;29;20262;-75
2021/04/14 08:54:04;;;;;;;7.13;4.00;;;;;11.50;102587.00;;;;9905483;29;20742;-75
2021/04/14 08:59:09;;;;;;;5.60;3.43;;;;;12.00;102578.00;;;;9912196;29;20226;-75
2021/04/14 09:04:13;;;;;;;5.17;3.80;;;;;12.10;102581.00;;;;9903024;29;20263;-75
2021/04/14 09:09:20;;;;;;;5.37;4.40;;;;;12.50;102579.00;;;;9896119;29;20761;-75
2021/04/14 09:14:25;;;;;;;7.63;4.33;;;;;13.40;102560.00;;;;9905391;29;20211;-75
2021/04/14 09:19:35;;;;;;;9.33;4.53;;;;;13.70;102573.00;;;;9893939;29;20233;-75
2021/04/14 09:24:43;;;;;;;4.90;3.60;;;;;13.90;102570.00;;;;9933200;29;20211;-75
2021/04/14 09:29:50;;;;;;;5.87;4.10;;;;;13.80;102568.00;;;;9916691;29;20960;-75
2021/04/14 09:34:52;;;;;;;8.87;4.13;;;;;13.50;102568.00;;;;9916577;29;20505;-75
2021/04/14 09:40:00;;;;;;;7.47;4.60;;;;;13.40;102555.00;;;;9905702;29;20736;-75
2021/04/14 09:45:17;;;;;;;9.57;4.77;;;;;13.60;102560.00;;;;9894405;29;20215;-75
2021/04/14 09:50:30;;;;;;;6.30;4.33;;;;;13.00;102556.00;;;;9920124;29;20218;-75
2021/04/14 09:55:41;;;;;;;7.23;4.60;;;;;12.80;102560.00;;;;9898852;29;20227;-75
2021/04/14 10:00:47;;;;;;;6.60;4.53;;;;;12.60;102552.00;;;;9895434;29;20218;-75
2021/04/14 10:05:49;;;;;;;7.07;4.70;;;;;12.30;102544.00;;;;9924433;29;20233;-75
2021/04/14 10:10:50;;;;;;;5.17;4.67;;;;;12.20;102547.00;;;;9920143;29;20631;-74
2021/04/14 10:15:52;;;;;;;8.77;4.10;;;;;12.40;102542.00;;;;9908894;29;20226;-75
2021/04/14 10:20:54;;;;;;;5.43;4.23;;;;;12.60;102542.00;;;;9880707;29;20267;-75
2021/04/14 10:26:04;;;;;;;6.47;4.60;;;;;12.80;102529.00;;;;9922933;29;20223;-76
2021/04/14 10:31:22;;;;;;;6.07;4.30;;;;;13.30;102526.00;;;;9885363;29;20239;-74
2021/04/14 10:36:30;;;;;;;8.23;4.97;;;;;13.60;102522.00;;;;9914716;29;20231;-74
2021/04/14 10:41:32;;;;;;;6.57;4.57;;;;;13.90;102523.00;;;;9904561;29;21608;-74
2021/04/14 10:46:35;;;;;;;7.83;5.50;;;;;14.30;102509.00;;;;9928041;29;20207;-75
2021/04/14 10:51:42;;;;;;;5.90;4.57;;;;;14.70;102508.00;;;;9882758;29;20212;-74
2021/04/14 10:56:44;;;;;;;7.43;4.67;;;;;15.00;102503.00;;;;9918836;29;20222;-74
2021/04/14 11:01:47;;;;;;;9.57;5.37;;;;;15.20;102510.00;;;;9887290;29;20216;-74
2021/04/14 11:06:59;;;;;;;9.87;4.90;;;;;15.50;102509.00;;;;9939241;29;20227;-75
2021/04/14 11:12:26;;;;;;;6.80;4.70;;;;;15.70;102503.00;;;;9937349;29;20195;-74
2021/04/14 11:17:32;;;;;;;8.20;5.03;;;;;17.00;102492.00;;;;9931383;29;20613;-74
2021/04/14 11:22:45;;;;;;;9.87;5.50;;;;;17.40;102490.00;;;;9892536;29;20708;-73
2021/04/14 11:27:59;;;;;;;8.43;5.70;;;;;16.80;102488.00;;;;9908430;29;20210;-74
2021/04/14 11:33:02;;;;;;;9.60;5.17;;;;;17.20;102492.00;;;;9898778;30;20241;-75
2021/04/14 11:38:04;;;;;;;12.50;6.33;;;;;17.90;102487.00;;;;9911143;29;20294;-75
2021/04/14 11:43:35;;;;;;;8.93;5.32;;;;;18.20;102489.00;;;;9907570;29;20218;-74
2021/04/14 11:48:40;;;;;;;7.33;5.77;;;;;17.10;102493.00;;;;9911316;29;20213;-75
2021/04/14 11:53:50;;;;;;;8.87;6.07;;;;;16.30;102485.00;;;;9926240;29;20199;-75
2021/04/14 11:58:52;;;;;;;10.17;6.23;;;;;16.00;102473.00;;;;9921101;29;20234;-74
2021/04/14 12:03:54;;;;;;;7.50;5.83;;;;;16.30;102477.00;;;;9897132;29;20294;-74
2021/04/14 12:08:55;;;;;;;6.27;5.60;;;;;17.80;102465.00;;;;9945377;29;20314;-74
2021/04/14 12:13:57;;;;;;;9.23;6.03;;;;;18.10;102474.00;;;;9920270;29;20686;-74
2021/04/14 12:18:58;;;;;;;7.60;6.47;;;;;17.00;102473.00;;;;9911855;29;20768;-74
2021/04/14 12:24:00;;;;;;;9.73;6.00;;;;;15.80;102475.00;;;;9908040;29;20207;-74
2021/04/14 12:29:03;;;;;;;10.10;6.80;;;;;15.00;102473.00;;;;9922098;29;20286;-74
2021/04/14 12:34:06;;;;;;;8.80;6.77;;;;;14.40;102472.00;;;;9934669;29;20232;-74
2021/04/14 12:39:09;;;;;;;9.37;6.80;;;;;14.30;102467.00;;;;9925683;29;20238;-74
2021/04/14 12:44:11;;;;;;;8.17;6.33;;;;;14.10;102468.00;;;;9910592;29;20227;-74
2021/04/14 12:49:14;;;;;;;9.00;6.87;;;;;14.40;102465.00;;;;9945214;29;20666;-74
2021/04/14 12:54:30;;;;;;;7.37;6.67;;;;;15.80;102462.00;;;;9914495;29;20214;-74
2021/04/14 13:00:02;;;;;;;7.83;6.97;;;;;16.70;102460.00;;;;9900138;29;20222;-74
2021/04/14 13:05:13;;;;;;;9.87;6.47;;;;;17.70;102451.00;;;;9913396;29;20231;-74
2021/04/14 13:10:46;;;;;;;7.97;7.17;;;;;18.50;102450.00;;;;9903463;29;20214;-75
2021/04/14 13:15:57;;;;;;;8.37;6.73;;;;;17.30;102451.00;;;;9904651;29;20219;-74
2021/04/14 13:21:20;;;;;;;8.67;6.63;;;;;15.20;102444.00;;;;9928172;29;20615;-74
2021/04/14 13:26:31;;;;;;;9.77;6.70;;;;;14.30;102440.00;;;;9920417;29;20211;-74
2021/04/14 13:31:48;;;;;;;10.50;6.73;;;;;13.80;102440.00;;;;9927966;29;20215;-74
2021/04/14 13:37:11;;;;;;;8.80;6.27;;;;;13.60;102442.00;;;;9899009;29;20245;-72
2021/04/14 13:42:30;;;;;;;7.67;6.90;;;;;13.90;102439.00;;;;9929014;29;20234;-73
2021/04/14 13:47:57;;;;;;;13.20;7.50;;;;;14.40;102433.00;;;;9933097;29;20786;-73
2021/04/14 13:53:06;;;;;;;9.17;7.03;;;;;15.50;102426.00;;;;9889547;29;20241;-73
2021/04/14 13:58:38;;;;;;;9.73;6.87;;;;;16.40;102423.00;;;;9889355;29;20223;-73
2021/04/14 14:03:41;;;;;;;7.83;6.10;;;;;17.30;102418.00;;;;9909887;29;20726;-73
2021/04/14 14:08:49;;;;;;;11.00;7.67;;;;;17.10;102416.00;;;;9902881;29;20709;-73
2021/04/14 14:14:02;;;;;;;9.03;7.97;;;;;15.70;102423.00;;;;9888847;29;20242;-73
2021/04/14 14:19:09;;;;;;;9.00;8.07;;;;;15.80;102410.00;;;;9920998;29;20238;-73
2021/04/14 14:24:13;;;;;;;10.83;8.63;;;;;16.60;102419.00;;;;9910388;29;20203;-73
2021/04/14 14:29:15;;;;;;;9.33;7.90;;;;;14.60;102415.00;;;;9923229;29;20528;-73
2021/04/14 14:34:16;;;;;;;11.70;7.23;;;;;14.20;102415.00;;;;9924382;29;20215;-73
2021/04/14 14:39:36;;;;;;;10.50;6.73;;;;;17.10;102403.00;;;;9925330;29;20571;-73
2021/04/14 14:44:55;;;;;;;10.23;8.07;;;;;17.60;102425.00;;;;9936909;29;20219;-73
2021/04/14 14:50:10;;;;;;;11.07;7.93;;;;;15.50;102420.00;;;;9946633;29;20217;-73
2021/04/14 14:55:14;;;;;;;10.43;9.23;;;;;14.30;102417.00;;;;9905910;29;20243;-73
2021/04/14 15:00:24;;;;;;;13.53;9.03;;;;;13.00;102412.00;;;;9931818;29;20222;-73
2021/04/14 15:05:25;;;;;;;9.30;8.37;;;;;12.30;102411.00;;;;9931506;29;20223;-73
2021/04/14 15:10:28;;;;;;;10.10;9.10;;;;;11.80;102416.00;;;;9912798;29;20921;-73
2021/04/14 15:15:31;;;;;;;10.63;8.63;;;;;11.70;102422.00;;;;9878761;29;20219;-73
2021/04/14 15:20:33;;;;;;;10.13;9.10;;;;;11.40;102428.00;;;;9922492;29;20232;-73
2021/04/14 15:25:34;;;;;;;11.30;10.10;;;;;11.20;102418.00;;;;9899587;29;20264;-73
2021/04/14 15:30:36;;;;;;;14.20;9.70;;;;;11.70;102409.00;;;;9930473;29;20194;-73
2021/04/14 15:35:37;;;;;;;13.33;9.77;;;;;12.40;102419.00;;;;9942450;29;20199;-73
2021/04/14 15:40:39;;;;;;;13.13;9.60;;;;;12.00;102414.00;;;;9907844;29;20296;-73
2021/04/14 15:45:42;;;;;;;10.43;9.37;;;;;11.70;102422.00;;;;9919424;29;20303;-73
2021/04/14 15:50:45;;;;;;;10.27;9.27;;;;;11.50;102421.00;;;;9917469;29;20295;-73
2021/04/14 15:55:47;;;;;;;12.13;9.27;;;;;11.40;102426.00;;;;9916960;29;20199;-73
2021/04/14 16:00:53;;;;;;;11.50;9.67;;;;;11.20;102413.00;;;;9919335;29;20970;-72
2021/04/14 16:06:04;;;;;;;12.67;9.30;;;;;11.00;102422.00;;;;9902129;29;20568;-72
2021/04/14 16:11:05;;;;;;;11.53;9.47;;;;;10.90;102405.00;;;;9917168;29;20195;-73
2021/04/14 16:16:06;;;;;;;10.70;9.60;;;;;10.60;102400.00;;;;9937839;29;20246;-72
2021/04/14 16:21:08;;;;;;;9.77;8.87;;;;;10.60;102399.00;;;;9944382;29;20211;-72
2021/04/14 16:26:10;;;;;;;11.17;9.60;;;;;10.60;102412.00;;;;9907381;29;20207;-72
2021/04/14 16:31:11;;;;;;;10.30;8.03;;;;;10.40;102405.00;;;;9924035;29;20203;-72
2021/04/14 16:36:13;;;;;;;9.20;8.10;;;;;10.10;102411.00;;;;9935154;29;20207;-72
2021/04/14 16:41:14;;;;;;;9.57;7.80;;;;;10.00;102410.00;;;;9927483;29;20214;-72
2021/04/14 16:46:16;;;;;;;8.47;7.67;;;;;9.90;102409.00;;;;9916757;29;20244;-72
2021/04/14 16:51:17;;;;;;;8.63;7.50;;;;;9.70;102404.00;;;;9924444;29;20289;-72
2021/04/14 16:56:19;;;;;;;9.17;8.27;;;;;9.70;102400.00;;;;9932581;29;20223;-72
2021/04/14 17:01:22;;;;;;;8.93;7.73;;;;;9.70;102399.00;;;;9932008;29;20267;-72
2021/04/14 17:06:26;;;;;;;10.17;8.47;;;;;9.90;102401.00;;;;9946884;29;20223;-72
2021/04/14 17:11:27;;;;;;;8.90;7.93;;;;;10.10;102398.00;;;;9916846;29;20728;-72
2021/04/14 17:16:31;;;;;;;7.63;6.87;;;;;10.20;102396.00;;;;9931788;29;20601;-72
2021/04/14 17:21:33;;;;;;;8.10;6.47;;;;;10.40;102392.00;;;;9902028;29;20207;-72
2021/04/14 17:26:37;;;;;;;8.10;6.00;;;;;10.30;102388.00;;;;9946668;29;20199;-73
2021/04/14 17:31:40;;;;;;;9.63;5.77;;;;;10.30;102385.00;;;;9930632;29;20223;-72
2021/04/14 17:36:42;;;;;;;7.67;6.17;;;;;10.20;102386.00;;;;9930801;29;20222;-72
2021/04/14 17:41:47;;;;;;;6.20;5.47;;;;;10.00;102393.00;;;;9931121;29;20259;-72
2021/04/14 17:46:48;;;;;;;8.43;5.83;;;;;9.70;102390.00;;;;9944796;29;20230;-72
2021/04/14 17:51:50;;;;;;;7.70;5.37;;;;;9.40;102388.00;;;;9931089;29;20210;-72
2021/04/14 17:56:52;;;;;;;7.73;4.37;;;;;9.20;102391.00;;;;9908509;30;20227;-72
2021/04/14 18:01:53;;;;;;;6.13;4.77;;;;;8.90;102398.00;;;;9925521;29;20294;-72
2021/04/14 18:06:54;;;;;;;4.60;3.17;;;;;8.60;102405.00;;;;9877965;30;20811;-72
2021/04/14 18:11:58;;;;;;;5.13;3.10;;;;;8.40;102393.00;;;;9892931;30;20242;-73
2021/04/14 18:16:59;;;;;;;3.27;2.90;;;;;8.10;102408.00;;;;9909249;29;20215;-72
2021/04/14 18:22:01;;;;;;;3.47;2.47;;;;;7.90;102411.00;;;;9929593;29;20303;-72
2021/04/14 18:27:02;;;;;;;3.07;2.50;;;;;7.80;102423.00;;;;9929059;29;20234;-72
2021/04/14 18:32:05;;;;;;;2.87;1.90;;;;;7.70;102406.00;;;;9913806;29;20211;-73
2021/04/14 18:37:06;;;;;;;4.33;2.07;;;;;7.60;102418.00;;;;9893694;30;20327;-72
2021/04/14 18:42:08;;;;;;;4.23;2.20;;;;;7.50;102420.00;;;;9876621;29;20264;-72
2021/04/14 18:47:09;;;;;;;3.50;1.80;;;;;7.40;102428.00;;;;9919486;29;20195;-72
2021/04/14 18:52:13;;;;;;;3.50;1.70;;;;;7.20;102436.00;;;;9944383;29;20211;-72
2021/04/14 18:57:15;;;;;;;4.13;1.90;;;;;7.10;102448.00;;;;9927576;29;20679;-72
2021/04/14 19:02:16;;;;;;;4.07;1.67;;;;;6.90;102441.00;;;;9943245;29;20287;-72
2021/04/14 19:07:17;;;;;;;3.70;2.10;;;;;6.80;102445.00;;;;9942902;29;20219;-72
2021/04/14 19:12:19;;;;;;;1.90;1.60;;;;;6.70;102451.00;;;;9927932;29;20256;-72
2021/04/14 19:17:20;;;;;;;5.40;2.07;;;;;6.60;102463.00;;;;9927439;29;20250;-72
2021/04/14 19:22:33;;;;;;;4.60;1.70;;;;;6.60;102466.00;;;;9930044;29;20227;-72
2021/04/14 19:27:35;;;;;;;3.23;1.50;;;;;6.60;102465.00;;;;9942092;29;20195;-72
2021/04/14 19:32:36;;;;;;;4.50;1.63;;;;;6.50;102470.00;;;;9943748;29;20263;-71
2021/04/14 19:37:38;;;;;;;5.00;2.10;;;;;6.50;102472.00;;;;9928030;29;20219;-72
2021/04/14 19:42:39;;;;;;;2.43;1.60;;;;;6.40;102474.00;;;;9927506;29;20640;-72
2021/04/14 19:47:41;;;;;;;4.10;1.57;;;;;6.40;102471.00;;;;9927056;29;20210;-72
2021/04/14 19:52:42;;;;;;;4.67;1.57;;;;;6.40;102479.00;;;;9912837;29;20209;-72
2021/04/14 19:57:53;;;;;;;4.37;1.73;;;;;6.40;102484.00;;;;9914500;29;20218;-72
2021/04/14 20:02:54;;;;;;;3.30;2.10;;;;;6.40;102478.00;;;;9897176;29;20218;-72
2021/04/14 20:07:58;;;;;;;4.27;2.40;;;;;6.40;102479.00;;;;9927678;29;20250;-72
2021/04/14 20:13:01;;;;;;;3.90;1.70;;;;;6.40;102483.00;;;;9918524;29;20236;-72
2021/04/14 20:18:05;;;;;;;4.33;1.87;;;;;6.30;102479.00;;;;9939668;29;20249;-72
2021/04/14 20:23:07;;;;;;;6.70;2.37;;;;;6.30;102484.00;;;;9933359;29;20199;-72
2021/04/14 20:28:14;;;;;;;4.93;2.43;;;;;6.20;102487.00;;;;9948691;29;20199;-72
2021/04/14 20:33:18;;;;;;;4.37;2.27;;;;;6.10;102496.00;;;;9914958;29;20211;-72
2021/04/14 20:38:21;;;;;;;5.57;2.43;;;;;5.90;102498.00;;;;9900630;29;20227;-72
2021/04/14 20:43:22;;;;;;;5.53;2.67;;;;;5.80;102499.00;;;;9926705;29;20243;-72
2021/04/14 20:48:23;;;;;;;8.60;2.40;;;;;5.60;102488.00;;;;9919310;29;20664;-72
2021/04/14 20:53:26;;;;;;;5.23;2.43;;;;;5.50;102506.00;;;;9895047;30;20204;-72
2021/04/14 20:58:28;;;;;;;6.60;2.67;;;;;5.30;102495.00;;;;9909982;30;20231;-72
2021/04/14 21:03:30;;;;;;;6.23;2.67;;;;;5.10;102498.00;;;;9925331;29;20529;-72
2021/04/14 21:08:33;;;;;;;6.30;3.00;;;;;5.00;102509.00;;;;9916833;29;20238;-72
2021/04/14 21:13:34;;;;;;;8.00;3.93;;;;;4.80;102504.00;;;;9948136;29;20202;-72
2021/04/14 21:18:37;;;;;;;5.67;2.80;;;;;4.70;102510.00;;;;9946634;29;20593;-72
2021/04/14 21:23:39;;;;;;;7.73;3.70;;;;;4.50;102517.00;;;;9911528;29;20207;-72
2021/04/14 21:28:40;;;;;;;6.60;3.40;;;;;4.40;102508.00;;;;9930779;29;20207;-72
2021/04/14 21:33:41;;;;;;;8.43;3.97;;;;;4.30;102518.00;;;;9913395;29;20204;-72
2021/04/14 21:38:44;;;;;;;8.80;3.80;;;;;4.10;102526.00;;;;9915464;29;20694;-72
2021/04/14 21:43:45;;;;;;;5.30;3.53;;;;;4.00;102528.00;;;;9904849;29;20211;-72
2021/04/14 21:48:46;;;;;;;7.37;3.50;;;;;3.90;102519.00;;;;9904908;29;20195;-72
2021/04/14 21:53:48;;;;;;;7.37;3.47;;;;;3.70;102524.00;;;;9915169;29;20256;-72
2021/04/14 21:58:49;;;;;;;7.70;3.70;;;;;3.70;102523.00;;;;9904463;29;20219;-72
2021/04/14 22:03:51;;;;;;;8.20;3.83;;;;;3.60;102515.00;;;;9944800;29;20199;-72
2021/04/14 22:08:52;;;;;;;7.20;3.83;;;;;3.50;102527.00;;;;9929135;29;20284;-72
2021/04/14 22:13:54;;;;;;;8.27;4.10;;;;;3.40;102518.00;;;;9940512;29;20219;-72
2021/04/14 22:18:57;;;;;;;4.80;3.90;;;;;3.30;102519.00;;;;9937156;29;20218;-72
2021/04/14 22:23:58;;;;;;;10.23;3.67;;;;;3.20;102527.00;;;;9902310;29;20687;-72
2021/04/14 22:29:16;;;;;;;6.53;4.27;;;;;3.10;102529.00;;;;9899790;29;20655;-72
2021/04/14 22:34:18;;;;;;;7.53;3.60;;;;;3.10;102520.00;;;;9915199;29;20226;-72
2021/04/14 22:39:19;;;;;;;12.53;4.53;;;;;3.10;102526.00;;;;9941945;29;20215;-72
2021/04/14 22:44:25;;;;;;;5.43;4.23;;;;;3.00;102528.00;;;;9896444;29;20297;-72
2021/04/14 22:49:26;;;;;;;8.27;4.33;;;;;2.80;102533.00;;;;9928444;29;20241;-72
2021/04/14 22:54:28;;;;;;;7.13;4.67;;;;;2.80;102530.00;;;;9928922;29;20648;-72
2021/04/14 22:59:30;;;;;;;7.57;4.50;;;;;2.70;102533.00;;;;9944937;29;20215;-72
2021/04/14 23:04:31;;;;;;;6.23;4.23;;;;;2.70;102534.00;;;;9913259;29;20231;-72
2021/04/14 23:09:33;;;;;;;9.70;4.37;;;;;2.50;102545.00;;;;9942941;29;20207;-72
2021/04/14 23:14:34;;;;;;;6.00;4.37;;;;;2.40;102540.00;;;;9928167;29;20207;-72
2021/04/14 23:19:35;;;;;;;6.70;4.60;;;;;2.30;102537.00;;;;9927135;29;20226;-72
2021/04/14 23:24:37;;;;;;;9.27;4.40;;;;;2.10;102530.00;;;;9927558;29;20240;-72
2021/04/14 23:29:38;;;;;;;8.60;5.00;;;;;2.00;102536.00;;;;9943284;29;20286;-72
2021/04/14 23:34:39;;;;;;;10.57;5.20;;;;;1.90;102536.00;;;;9942539;29;20194;-72
2021/04/14 23:39:40;;;;;;;8.50;5.63;;;;;1.90;102532.00;;;;9927206;29;20310;-72
2021/04/14 23:44:42;;;;;;;7.87;4.73;;;;;1.80;102533.00;;;;9929939;29;20207;-72
2021/04/14 23:49:44;;;;;;;7.53;5.43;;;;;1.70;102534.00;;;;9921894;29;20210;-72
2021/04/14 23:54:45;;;;;;;10.77;5.37;;;;;1.60;102537.00;;;;9866846;30;20606;-72
2021/04/14 23:59:47;;;;;;;10.07;5.43;;;;;1.60;102530.00;;;;9881710;29;20215;-72
